Najafabad, Iran
Current Conditions -  °F | °C
As of 8:30 PM on Thursday 29 Jan 2015 (Local Time) from OIFM Reporting Station
Few Clouds Few Clouds  
Wind Chill: 52°   Ceiling: Unl
Heat Index: 52°   Visibility: 6mi
Dew Point: 18°   Wind: 5mph
Humidity: 26%   Direction: 340°NNW
Pressure: 30"   Gusts: NA
Location:  32.67°N, 51.35°E
Report Text: OIFM 291630Z 34004KT 9999 FEW035 11/M08 Q1016 A3003
Loading
Personal Weather Stations






























Interactive Weather Map New forecast layout! Learn more

10-Day Weather Forecast

Advertisements
Track Severe Weather on mobile